Paulatuk, Northwest Territories

9:36 PM MDT on September 28, 2016 (GMT -0600)
Cape Parry | | Change Station

Elev 282 ft 70.17 °N, 124.72 °W | Updated 1 minute ago

Overcast
Overcast
30 °F
Feels Like 15 °F
N
30
Wind Variable Wind from WNW
Gusts 36 mph

Today
High -- | Low -- °F
--% Chance of Precip.
Yesterday
High -- | Low -- °F
Precip. -- in
Pressure 29.87 in
Visibility 4.0 miles
Clouds Mostly Cloudy 500 ft
Mostly Cloudy 1300 ft
Overcast 3100 ft
Windchill 15 °F
Dew Point 27 °F
Humidity 86%
Rainfall 0.00 in
Snow Depth Not available.
8:22 AM 7:49 PM
Waning Crescent, 3% visible
SPECI CZCP 290335Z AUTO 30026G31KT 4SM //// BKN005 BKN013 OVC031 M01/M03 A2987
Pressure 29.87 in
Visibility 4.0 miles
Clouds Mostly Cloudy 500 ft
Mostly Cloudy 1300 ft
Overcast 3100 ft
Windchill 15 °F
Dew Point 27 °F
Humidity 86%
Rainfall 0.00 in
Snow Depth Not available.
8:22 AM 7:49 PM
Waning Crescent, 3% visible
SPECI CZCP 290335Z AUTO 30026G31KT 4SM //// BKN005 BKN013 OVC031 M01/M03 A2987

10-Day Weather Forecast

No radar image for this location.
×

Almanac

Astronomy

Sep. 28, 2016 Rise Set
Actual Time
Civil Twilight
Nautical Twilight
Astronomical Twilight
Moon
Length of Visible Light
Length of Day
Tomorrow will be .
, % of the Moon is Illuminated

Today's Extremes

Country Highs Country Lows

Community

WunderPhotos

Upload Photos

1,942,416 photos uploaded!

WunderBlog® & News

Nearby

Air Quality

  Air Quality AQ Index Pollutant
Not available.

Snow Depth

Station Depth Elevation

Earthquake Activity

City Distance Mag. Time & Date
Minimum magnitude displayed is 2.5.

Coastal Water Temperatures

Place Temperature

Stations

Nearby Weather Stations

Station Location Temp. Windchill Dew Point Humidity Wind Precip. Elev Updated Type
                   

Watches & Warnings

There are currently no watches in effect.